Aérodrome :
LOGIN :

S'inscrire | Disclaimer

   EN    FR    IT 

 










Légende :    VFR   VFR Marginal   IFR   IFR Intensif   IFR Très Intensif
Visi : 
Plafond : 
>= 8 km
>= 3000ft
5 à 8 km
1000 à 3000 ft
1500m à 5 km
500 à 1000 ft
800 à 1500m
200 à 500 ft
< 800m
< 200 ft
Symboles :   Orages  Brouillard  Fortes neiges  Fortes précipitations  Vent > 20 kt
SIGMETs :   Divers  Orages  Givrage  Turbulence  Onde Orograph.  Cendres Volcan.






- Altitude de l'aérodrome : 791 ft
- Code IATA : KRK


EPKK - Krakow-Balice

DERNIER METAR :
  • 270600Z 21006KT 2800 BR NSC M03/M04 Q1016

METARs EXPIRÉS :
  • 270530Z 21006KT 3000 BR NSC M04/M04 Q1017
  • 270500Z 20005KT 3000 BR NSC M04/M04 Q1017
  • 270430Z 20003KT 2500 BR NSC M04/M05 Q1017
  • 270400Z 20002KT 2000 BR NSC M04/M04 Q1017
  • 270330Z VRB02KT 2000 BR NSC M04/M05 Q1017

TAF TAF EPKK
Valide du 27 à 06h jusqu'au 28 à 06h UTC


270530Z 2706/2806 23002KT 3000 BR NSC
TEMPO 2706/2708 1200 BR
BECMG 2708/2711 7000
BECMG 2715/2717 3000 BR
BECMG 2717/2719 1200 BR
TEMPO 2720/2803 0600 FZFG
BECMG 2803/2806 05010KT 6000



MET'MAP, la Météo Aéronautique d'un coup d'oeil ! - Copyright ORBIFLY Décembre 2007 - Disclaimer

ORBIFLY MET'MAP TEAM :

Programmation & Développement : Alexandra Zaïnal
Sur une idée originale de : Baudouin d'Aumeries
Assistance à la programmation : Marc-Olivier Méhu
Soutien technique & logistique : Manuel Goepfert

Contact : metmap@orbifly.com




SOURCES & CREDITS :

   NOAA